sensor_id;sensor_type;location;lat;lon;timestamp;P1;durP1;ratioP1;P2;durP2;ratioP2
7247;SDS011;3665;51.034;13.642;2023-07-31T00:03:28;2.50;;;1.50;;
7247;SDS011;3665;51.034;13.642;2023-07-31T00:08:32;7.00;;;1.83;;
7247;SDS011;3665;51.034;13.642;2023-07-31T00:13:19;2.50;;;1.40;;
7247;SDS011;3665;51.034;13.642;2023-07-31T00:18:09;2.30;;;1.27;;
7247;SDS011;3665;51.034;13.642;2023-07-31T00:22:56;4.33;;;1.40;;
7247;SDS011;3665;51.034;13.642;2023-07-31T00:32:46;2.70;;;1.33;;
7247;SDS011;3665;51.034;13.642;2023-07-31T00:37:37;2.70;;;1.37;;
7247;SDS011;3665;51.034;13.642;2023-07-31T00:42:27;3.00;;;1.70;;
7247;SDS011;3665;51.034;13.642;2023-07-31T00:47:16;4.00;;;1.60;;
7247;SDS011;3665;51.034;13.642;2023-07-31T00:52:00;4.23;;;1.60;;
7247;SDS011;3665;51.034;13.642;2023-07-31T00:56:50;1.83;;;1.40;;
7247;SDS011;3665;51.034;13.642;2023-07-31T01:01:36;4.00;;;1.53;;
7247;SDS011;3665;51.034;13.642;2023-07-31T01:06:27;3.93;;;1.80;;
7247;SDS011;3665;51.034;13.642;2023-07-31T01:11:27;3.90;;;1.60;;
7247;SDS011;3665;51.034;13.642;2023-07-31T01:16:16;2.30;;;1.30;;
7247;SDS011;3665;51.034;13.642;2023-07-31T01:21:17;4.60;;;1.40;;
7247;SDS011;3665;51.034;13.642;2023-07-31T01:26:28;3.93;;;1.60;;
7247;SDS011;3665;51.034;13.642;2023-07-31T01:31:29;5.87;;;1.43;;
7247;SDS011;3665;51.034;13.642;2023-07-31T01:36:14;5.57;;;1.70;;
7247;SDS011;3665;51.034;13.642;2023-07-31T01:41:03;6.23;;;2.00;;
7247;SDS011;3665;51.034;13.642;2023-07-31T01:45:56;4.50;;;1.40;;
7247;SDS011;3665;51.034;13.642;2023-07-31T01:50:40;3.50;;;1.60;;
7247;SDS011;3665;51.034;13.642;2023-07-31T01:55:33;3.17;;;1.63;;
7247;SDS011;3665;51.034;13.642;2023-07-31T02:00:17;3.33;;;1.97;;
7247;SDS011;3665;51.034;13.642;2023-07-31T02:10:27;1.67;;;1.20;;
7247;SDS011;3665;51.034;13.642;2023-07-31T02:15:14;3.93;;;2.00;;
7247;SDS011;3665;51.034;13.642;2023-07-31T02:20:00;10.63;;;2.20;;
7247;SDS011;3665;51.034;13.642;2023-07-31T02:24:48;4.03;;;1.80;;
7247;SDS011;3665;51.034;13.642;2023-07-31T02:34:56;1.77;;;1.30;;
7247;SDS011;3665;51.034;13.642;2023-07-31T02:39:49;3.80;;;1.50;;
7247;SDS011;3665;51.034;13.642;2023-07-31T02:44:33;4.47;;;1.47;;
7247;SDS011;3665;51.034;13.642;2023-07-31T02:49:20;5.43;;;1.53;;
7247;SDS011;3665;51.034;13.642;2023-07-31T02:54:08;3.23;;;1.37;;
7247;SDS011;3665;51.034;13.642;2023-07-31T02:58:58;3.93;;;1.53;;
7247;SDS011;3665;51.034;13.642;2023-07-31T03:03:45;2.80;;;1.37;;
7247;SDS011;3665;51.034;13.642;2023-07-31T03:08:30;3.37;;;1.37;;
7247;SDS011;3665;51.034;13.642;2023-07-31T03:18:37;2.40;;;1.33;;
7247;SDS011;3665;51.034;13.642;2023-07-31T03:23:30;2.50;;;1.43;;
7247;SDS011;3665;51.034;13.642;2023-07-31T03:28:17;1.33;;;1.23;;
7247;SDS011;3665;51.034;13.642;2023-07-31T03:33:04;3.23;;;1.70;;
7247;SDS011;3665;51.034;13.642;2023-07-31T03:37:57;3.20;;;1.53;;
7247;SDS011;3665;51.034;13.642;2023-07-31T03:42:41;6.00;;;1.70;;
7247;SDS011;3665;51.034;13.642;2023-07-31T03:47:30;4.00;;;1.73;;
7247;SDS011;3665;51.034;13.642;2023-07-31T03:52:18;2.63;;;1.70;;
7247;SDS011;3665;51.034;13.642;2023-07-31T03:57:04;5.03;;;1.97;;
7247;SDS011;3665;51.034;13.642;2023-07-31T04:01:53;4.17;;;2.10;;
7247;SDS011;3665;51.034;13.642;2023-07-31T04:06:40;5.77;;;2.40;;
7247;SDS011;3665;51.034;13.642;2023-07-31T04:11:33;3.90;;;2.10;;
7247;SDS011;3665;51.034;13.642;2023-07-31T04:16:16;3.73;;;2.13;;
7247;SDS011;3665;51.034;13.642;2023-07-31T04:21:06;2.53;;;2.17;;
7247;SDS011;3665;51.034;13.642;2023-07-31T04:25:52;5.53;;;2.43;;
7247;SDS011;3665;51.034;13.642;2023-07-31T04:35:54;5.57;;;2.67;;
7247;SDS011;3665;51.034;13.642;2023-07-31T04:40:49;5.87;;;2.70;;
7247;SDS011;3665;51.034;13.642;2023-07-31T04:45:38;3.63;;;2.40;;
7247;SDS011;3665;51.034;13.642;2023-07-31T04:50:24;5.17;;;2.47;;
7247;SDS011;3665;51.034;13.642;2023-07-31T04:55:14;5.30;;;2.90;;
7247;SDS011;3665;51.034;13.642;2023-07-31T04:59:59;6.50;;;2.40;;
7247;SDS011;3665;51.034;13.642;2023-07-31T05:04:48;6.00;;;2.40;;
7247;SDS011;3665;51.034;13.642;2023-07-31T05:09:54;6.37;;;2.50;;
7247;SDS011;3665;51.034;13.642;2023-07-31T05:14:40;3.13;;;2.07;;
7247;SDS011;3665;51.034;13.642;2023-07-31T05:19:28;3.37;;;2.33;;
7247;SDS011;3665;51.034;13.642;2023-07-31T05:24:13;5.20;;;2.50;;
7247;SDS011;3665;51.034;13.642;2023-07-31T05:34:28;6.33;;;2.37;;
7247;SDS011;3665;51.034;13.642;2023-07-31T05:39:12;4.90;;;2.70;;
7247;SDS011;3665;51.034;13.642;2023-07-31T05:44:18;4.73;;;1.87;;
7247;SDS011;3665;51.034;13.642;2023-07-31T05:49:21;3.27;;;2.40;;
7247;SDS011;3665;51.034;13.642;2023-07-31T05:59:17;5.40;;;2.60;;
7247;SDS011;3665;51.034;13.642;2023-07-31T06:04:19;4.13;;;2.30;;
7247;SDS011;3665;51.034;13.642;2023-07-31T06:09:21;4.33;;;2.03;;
7247;SDS011;3665;51.034;13.642;2023-07-31T06:19:19;3.57;;;2.20;;
7247;SDS011;3665;51.034;13.642;2023-07-31T06:24:04;3.53;;;2.47;;
7247;SDS011;3665;51.034;13.642;2023-07-31T06:28:49;3.67;;;1.90;;
7247;SDS011;3665;51.034;13.642;2023-07-31T06:33:37;3.53;;;2.13;;
7247;SDS011;3665;51.034;13.642;2023-07-31T06:38:26;4.43;;;2.17;;
7247;SDS011;3665;51.034;13.642;2023-07-31T06:43:12;3.93;;;2.13;;
7247;SDS011;3665;51.034;13.642;2023-07-31T06:48:00;2.67;;;1.80;;
7247;SDS011;3665;51.034;13.642;2023-07-31T06:52:55;3.07;;;1.77;;
7247;SDS011;3665;51.034;13.642;2023-07-31T06:57:53;4.00;;;1.97;;
7247;SDS011;3665;51.034;13.642;2023-07-31T07:02:41;6.40;;;2.10;;
7247;SDS011;3665;51.034;13.642;2023-07-31T07:07:28;5.60;;;2.10;;
7247;SDS011;3665;51.034;13.642;2023-07-31T07:17:36;3.90;;;1.90;;
7247;SDS011;3665;51.034;13.642;2023-07-31T07:22:29;3.20;;;2.03;;
7247;SDS011;3665;51.034;13.642;2023-07-31T07:27:13;2.73;;;1.83;;
7247;SDS011;3665;51.034;13.642;2023-07-31T07:32:02;5.00;;;2.00;;
7247;SDS011;3665;51.034;13.642;2023-07-31T07:36:48;4.40;;;1.97;;
7247;SDS011;3665;51.034;13.642;2023-07-31T07:41:36;2.80;;;1.90;;
7247;SDS011;3665;51.034;13.642;2023-07-31T07:46:29;3.73;;;2.03;;
7247;SDS011;3665;51.034;13.642;2023-07-31T07:51:15;3.27;;;2.10;;
7247;SDS011;3665;51.034;13.642;2023-07-31T07:56:00;4.17;;;2.03;;
7247;SDS011;3665;51.034;13.642;2023-07-31T08:05:57;3.63;;;2.10;;
7247;SDS011;3665;51.034;13.642;2023-07-31T08:10:42;5.83;;;2.30;;
7247;SDS011;3665;51.034;13.642;2023-07-31T08:15:30;2.40;;;1.87;;
7247;SDS011;3665;51.034;13.642;2023-07-31T08:20:17;3.10;;;2.07;;
7247;SDS011;3665;51.034;13.642;2023-07-31T08:25:04;4.37;;;1.97;;
7247;SDS011;3665;51.034;13.642;2023-07-31T08:29:53;3.10;;;1.90;;
7247;SDS011;3665;51.034;13.642;2023-07-31T08:34:42;2.83;;;1.87;;
7247;SDS011;3665;51.034;13.642;2023-07-31T08:39:28;3.37;;;1.87;;
7247;SDS011;3665;51.034;13.642;2023-07-31T08:44:21;3.17;;;2.07;;
7247;SDS011;3665;51.034;13.642;2023-07-31T08:49:44;5.93;;;2.27;;
7247;SDS011;3665;51.034;13.642;2023-07-31T08:54:52;4.03;;;2.00;;
7247;SDS011;3665;51.034;13.642;2023-07-31T08:59:46;2.80;;;2.10;;
7247;SDS011;3665;51.034;13.642;2023-07-31T09:04:31;3.10;;;1.97;;
7247;SDS011;3665;51.034;13.642;2023-07-31T09:09:25;2.37;;;2.17;;
7247;SDS011;3665;51.034;13.642;2023-07-31T09:14:10;2.60;;;2.10;;
7247;SDS011;3665;51.034;13.642;2023-07-31T09:18:57;4.27;;;2.10;;
7247;SDS011;3665;51.034;13.642;2023-07-31T09:23:59;2.23;;;1.80;;
7247;SDS011;3665;51.034;13.642;2023-07-31T09:28:48;3.10;;;2.10;;
7247;SDS011;3665;51.034;13.642;2023-07-31T09:38:40;3.40;;;2.10;;
7247;SDS011;3665;51.034;13.642;2023-07-31T09:43:30;5.27;;;2.60;;
7247;SDS011;3665;51.034;13.642;2023-07-31T09:48:18;3.50;;;2.03;;
7247;SDS011;3665;51.034;13.642;2023-07-31T09:53:04;3.13;;;1.97;;
7247;SDS011;3665;51.034;13.642;2023-07-31T09:57:50;5.00;;;2.43;;
7247;SDS011;3665;51.034;13.642;2023-07-31T10:02:40;4.00;;;1.90;;
7247;SDS011;3665;51.034;13.642;2023-07-31T10:07:29;3.03;;;2.20;;
7247;SDS011;3665;51.034;13.642;2023-07-31T10:12:17;3.73;;;2.10;;
7247;SDS011;3665;51.034;13.642;2023-07-31T10:17:05;2.63;;;2.10;;
7247;SDS011;3665;51.034;13.642;2023-07-31T10:21:49;5.77;;;2.20;;
7247;SDS011;3665;51.034;13.642;2023-07-31T10:26:41;3.40;;;2.17;;
7247;SDS011;3665;51.034;13.642;2023-07-31T10:31:29;4.03;;;2.23;;
7247;SDS011;3665;51.034;13.642;2023-07-31T10:36:16;2.70;;;2.47;;
7247;SDS011;3665;51.034;13.642;2023-07-31T10:41:07;2.20;;;1.73;;
7247;SDS011;3665;51.034;13.642;2023-07-31T10:45:53;3.57;;;2.33;;
7247;SDS011;3665;51.034;13.642;2023-07-31T10:50:45;2.40;;;2.00;;
7247;SDS011;3665;51.034;13.642;2023-07-31T10:55:44;3.53;;;2.17;;
7247;SDS011;3665;51.034;13.642;2023-07-31T11:00:36;4.67;;;1.83;;
7247;SDS011;3665;51.034;13.642;2023-07-31T11:05:22;1.80;;;1.60;;
7247;SDS011;3665;51.034;13.642;2023-07-31T11:10:41;2.00;;;1.70;;
7247;SDS011;3665;51.034;13.642;2023-07-31T11:15:28;2.77;;;1.90;;
7247;SDS011;3665;51.034;13.642;2023-07-31T11:20:17;2.40;;;1.87;;
7247;SDS011;3665;51.034;13.642;2023-07-31T11:25:05;4.43;;;1.90;;
7247;SDS011;3665;51.034;13.642;2023-07-31T11:29:52;3.40;;;1.97;;
7247;SDS011;3665;51.034;13.642;2023-07-31T11:39:48;3.03;;;1.80;;
7247;SDS011;3665;51.034;13.642;2023-07-31T11:44:51;3.67;;;1.80;;
7247;SDS011;3665;51.034;13.642;2023-07-31T11:49:36;2.57;;;1.60;;
7247;SDS011;3665;51.034;13.642;2023-07-31T11:54:25;2.90;;;1.60;;
7247;SDS011;3665;51.034;13.642;2023-07-31T11:59:12;1.83;;;1.53;;
7247;SDS011;3665;51.034;13.642;2023-07-31T12:04:03;1.70;;;1.50;;
7247;SDS011;3665;51.034;13.642;2023-07-31T12:08:48;2.63;;;1.37;;
7247;SDS011;3665;51.034;13.642;2023-07-31T12:13:41;5.20;;;2.23;;
7247;SDS011;3665;51.034;13.642;2023-07-31T12:18:35;2.97;;;1.67;;
7247;SDS011;3665;51.034;13.642;2023-07-31T12:23:31;1.48;;;1.38;;
7247;SDS011;3665;51.034;13.642;2023-07-31T12:28:16;3.28;;;1.75;;
7247;SDS011;3665;51.034;13.642;2023-07-31T12:33:06;2.38;;;2.03;;
7247;SDS011;3665;51.034;13.642;2023-07-31T12:38:01;4.00;;;2.00;;
7247;SDS011;3665;51.034;13.642;2023-07-31T12:43:05;3.85;;;2.20;;
7247;SDS011;3665;51.034;13.642;2023-07-31T12:48:01;2.40;;;1.50;;
7247;SDS011;3665;51.034;13.642;2023-07-31T12:53:05;2.65;;;1.52;;
7247;SDS011;3665;51.034;13.642;2023-07-31T12:57:54;3.55;;;1.90;;
7247;SDS011;3665;51.034;13.642;2023-07-31T13:02:41;2.13;;;1.60;;
7247;SDS011;3665;51.034;13.642;2023-07-31T13:07:28;2.53;;;1.85;;
7247;SDS011;3665;51.034;13.642;2023-07-31T13:12:19;1.90;;;1.58;;
7247;SDS011;3665;51.034;13.642;2023-07-31T13:17:06;3.28;;;1.77;;
7247;SDS011;3665;51.034;13.642;2023-07-31T13:21:52;2.10;;;1.75;;
7247;SDS011;3665;51.034;13.642;2023-07-31T13:26:42;1.95;;;1.73;;
7247;SDS011;3665;51.034;13.642;2023-07-31T13:31:29;4.30;;;1.77;;
7247;SDS011;3665;51.034;13.642;2023-07-31T13:36:17;1.58;;;1.48;;
7247;SDS011;3665;51.034;13.642;2023-07-31T13:46:29;2.92;;;1.70;;
7247;SDS011;3665;51.034;13.642;2023-07-31T13:51:14;2.28;;;1.60;;
7247;SDS011;3665;51.034;13.642;2023-07-31T13:56:00;2.55;;;1.60;;
7247;SDS011;3665;51.034;13.642;2023-07-31T14:00:50;2.92;;;1.80;;
7247;SDS011;3665;51.034;13.642;2023-07-31T14:05:37;2.95;;;1.88;;
7247;SDS011;3665;51.034;13.642;2023-07-31T14:10:24;2.88;;;1.80;;
7247;SDS011;3665;51.034;13.642;2023-07-31T14:15:12;3.38;;;2.17;;
7247;SDS011;3665;51.034;13.642;2023-07-31T14:25:20;4.03;;;2.08;;
7247;SDS011;3665;51.034;13.642;2023-07-31T14:30:12;3.05;;;2.08;;
7247;SDS011;3665;51.034;13.642;2023-07-31T14:34:58;3.70;;;1.95;;
7247;SDS011;3665;51.034;13.642;2023-07-31T14:39:46;3.95;;;1.90;;
7247;SDS011;3665;51.034;13.642;2023-07-31T14:49:55;2.55;;;1.83;;
7247;SDS011;3665;51.034;13.642;2023-07-31T14:54:40;3.50;;;1.80;;
7247;SDS011;3665;51.034;13.642;2023-07-31T14:59:33;2.00;;;1.77;;
7247;SDS011;3665;51.034;13.642;2023-07-31T15:04:17;3.58;;;2.15;;
7247;SDS011;3665;51.034;13.642;2023-07-31T15:09:05;2.30;;;2.10;;
7247;SDS011;3665;51.034;13.642;2023-07-31T15:13:52;2.20;;;1.92;;
7247;SDS011;3665;51.034;13.642;2023-07-31T15:18:40;2.42;;;1.83;;
7247;SDS011;3665;51.034;13.642;2023-07-31T15:23:32;2.60;;;2.10;;
7247;SDS011;3665;51.034;13.642;2023-07-31T15:28:18;2.20;;;1.60;;
7247;SDS011;3665;51.034;13.642;2023-07-31T15:33:04;3.70;;;2.10;;
7247;SDS011;3665;51.034;13.642;2023-07-31T15:37:48;2.53;;;1.90;;
7247;SDS011;3665;51.034;13.642;2023-07-31T15:42:38;2.17;;;1.90;;
7247;SDS011;3665;51.034;13.642;2023-07-31T15:47:28;2.40;;;2.10;;
7247;SDS011;3665;51.034;13.642;2023-07-31T15:52:13;2.90;;;2.00;;
7247;SDS011;3665;51.034;13.642;2023-07-31T15:57:06;2.03;;;1.83;;
7247;SDS011;3665;51.034;13.642;2023-07-31T16:01:55;2.53;;;1.93;;
7247;SDS011;3665;51.034;13.642;2023-07-31T16:06:41;3.13;;;1.80;;
7247;SDS011;3665;51.034;13.642;2023-07-31T16:11:32;1.83;;;1.67;;
7247;SDS011;3665;51.034;13.642;2023-07-31T16:16:18;3.57;;;2.10;;
7247;SDS011;3665;51.034;13.642;2023-07-31T16:21:05;2.03;;;1.83;;
7247;SDS011;3665;51.034;13.642;2023-07-31T16:25:57;3.90;;;2.20;;
7247;SDS011;3665;51.034;13.642;2023-07-31T16:30:41;3.73;;;2.40;;
7247;SDS011;3665;51.034;13.642;2023-07-31T16:35:32;3.40;;;2.20;;
7247;SDS011;3665;51.034;13.642;2023-07-31T16:40:16;3.57;;;2.27;;
7247;SDS011;3665;51.034;13.642;2023-07-31T16:50:18;1.97;;;1.77;;
7247;SDS011;3665;51.034;13.642;2023-07-31T16:55:13;4.80;;;2.47;;
7247;SDS011;3665;51.034;13.642;2023-07-31T16:59:59;3.70;;;2.40;;
7247;SDS011;3665;51.034;13.642;2023-07-31T17:04:50;2.27;;;2.07;;
7247;SDS011;3665;51.034;13.642;2023-07-31T17:09:40;2.93;;;2.30;;
7247;SDS011;3665;51.034;13.642;2023-07-31T17:14:26;2.77;;;2.10;;
7247;SDS011;3665;51.034;13.642;2023-07-31T17:19:13;4.30;;;3.13;;
7247;SDS011;3665;51.034;13.642;2023-07-31T17:24:11;3.13;;;2.20;;
7247;SDS011;3665;51.034;13.642;2023-07-31T17:29:11;3.87;;;2.43;;
7247;SDS011;3665;51.034;13.642;2023-07-31T17:34:04;3.20;;;2.17;;
7247;SDS011;3665;51.034;13.642;2023-07-31T17:38:56;3.73;;;2.43;;
7247;SDS011;3665;51.034;13.642;2023-07-31T17:43:52;3.20;;;2.17;;
7247;SDS011;3665;51.034;13.642;2023-07-31T17:48:53;3.53;;;2.20;;
7247;SDS011;3665;51.034;13.642;2023-07-31T17:53:37;3.43;;;2.53;;
7247;SDS011;3665;51.034;13.642;2023-07-31T17:58:27;4.47;;;2.50;;
7247;SDS011;3665;51.034;13.642;2023-07-31T18:03:14;4.77;;;2.40;;
7247;SDS011;3665;51.034;13.642;2023-07-31T18:08:02;5.07;;;2.50;;
7247;SDS011;3665;51.034;13.642;2023-07-31T18:12:55;5.93;;;2.63;;
7247;SDS011;3665;51.034;13.642;2023-07-31T18:17:39;4.23;;;2.17;;
7247;SDS011;3665;51.034;13.642;2023-07-31T18:22:27;4.03;;;2.50;;
7247;SDS011;3665;51.034;13.642;2023-07-31T18:27:13;4.07;;;2.77;;
7247;SDS011;3665;51.034;13.642;2023-07-31T18:32:02;3.40;;;2.40;;
7247;SDS011;3665;51.034;13.642;2023-07-31T18:36:50;3.33;;;2.43;;
7247;SDS011;3665;51.034;13.642;2023-07-31T18:41:39;3.70;;;2.30;;
7247;SDS011;3665;51.034;13.642;2023-07-31T18:46:27;3.37;;;2.80;;
7247;SDS011;3665;51.034;13.642;2023-07-31T18:51:13;3.40;;;2.40;;
7247;SDS011;3665;51.034;13.642;2023-07-31T18:56:01;4.07;;;2.30;;
7247;SDS011;3665;51.034;13.642;2023-07-31T19:00:50;3.27;;;2.60;;
7247;SDS011;3665;51.034;13.642;2023-07-31T19:05:38;4.20;;;1.90;;
7247;SDS011;3665;51.034;13.642;2023-07-31T19:10:26;6.00;;;2.70;;
7247;SDS011;3665;51.034;13.642;2023-07-31T19:15:13;3.63;;;2.40;;
7247;SDS011;3665;51.034;13.642;2023-07-31T19:20:02;4.00;;;3.00;;
7247;SDS011;3665;51.034;13.642;2023-07-31T19:24:50;3.17;;;2.63;;
7247;SDS011;3665;51.034;13.642;2023-07-31T19:29:40;4.20;;;2.90;;
7247;SDS011;3665;51.034;13.642;2023-07-31T19:34:27;6.07;;;2.83;;
7247;SDS011;3665;51.034;13.642;2023-07-31T19:39:14;3.40;;;2.23;;
7247;SDS011;3665;51.034;13.642;2023-07-31T19:44:03;5.27;;;2.37;;
7247;SDS011;3665;51.034;13.642;2023-07-31T19:48:50;3.20;;;2.63;;
7247;SDS011;3665;51.034;13.642;2023-07-31T19:53:37;5.00;;;2.27;;
7247;SDS011;3665;51.034;13.642;2023-07-31T19:58:33;2.90;;;2.40;;
7247;SDS011;3665;51.034;13.642;2023-07-31T20:08:35;5.73;;;2.57;;
7247;SDS011;3665;51.034;13.642;2023-07-31T20:13:21;5.27;;;2.60;;
7247;SDS011;3665;51.034;13.642;2023-07-31T20:18:18;3.70;;;2.70;;
7247;SDS011;3665;51.034;13.642;2023-07-31T20:23:14;4.00;;;2.80;;
7247;SDS011;3665;51.034;13.642;2023-07-31T20:28:16;7.27;;;2.97;;
7247;SDS011;3665;51.034;13.642;2023-07-31T20:38:18;4.80;;;2.87;;
7247;SDS011;3665;51.034;13.642;2023-07-31T20:43:13;5.90;;;2.97;;
7247;SDS011;3665;51.034;13.642;2023-07-31T20:48:02;4.47;;;2.50;;
7247;SDS011;3665;51.034;13.642;2023-07-31T20:52:52;4.43;;;2.93;;
7247;SDS011;3665;51.034;13.642;2023-07-31T20:57:38;3.77;;;2.50;;
7247;SDS011;3665;51.034;13.642;2023-07-31T21:02:25;4.57;;;2.60;;
7247;SDS011;3665;51.034;13.642;2023-07-31T21:07:13;5.10;;;2.73;;
7247;SDS011;3665;51.034;13.642;2023-07-31T21:17:22;3.00;;;2.17;;
7247;SDS011;3665;51.034;13.642;2023-07-31T21:22:12;5.17;;;2.67;;
7247;SDS011;3665;51.034;13.642;2023-07-31T21:26:58;4.33;;;2.90;;
7247;SDS011;3665;51.034;13.642;2023-07-31T21:31:45;4.30;;;2.70;;
7247;SDS011;3665;51.034;13.642;2023-07-31T21:36:35;4.50;;;2.63;;
7247;SDS011;3665;51.034;13.642;2023-07-31T21:41:29;5.80;;;2.70;;
7247;SDS011;3665;51.034;13.642;2023-07-31T21:46:30;6.33;;;2.93;;
7247;SDS011;3665;51.034;13.642;2023-07-31T21:51:14;5.27;;;2.67;;
7247;SDS011;3665;51.034;13.642;2023-07-31T22:01:22;5.10;;;2.53;;
7247;SDS011;3665;51.034;13.642;2023-07-31T22:06:09;4.83;;;2.40;;
7247;SDS011;3665;51.034;13.642;2023-07-31T22:10:58;4.53;;;2.33;;
7247;SDS011;3665;51.034;13.642;2023-07-31T22:20:47;3.43;;;2.40;;
7247;SDS011;3665;51.034;13.642;2023-07-31T22:25:40;3.63;;;2.63;;
7247;SDS011;3665;51.034;13.642;2023-07-31T22:30:26;3.70;;;2.73;;
7247;SDS011;3665;51.034;13.642;2023-07-31T22:35:14;5.13;;;2.50;;
7247;SDS011;3665;51.034;13.642;2023-07-31T22:39:58;4.13;;;2.30;;
7247;SDS011;3665;51.034;13.642;2023-07-31T22:44:44;3.93;;;2.47;;
7247;SDS011;3665;51.034;13.642;2023-07-31T22:54:45;4.67;;;2.60;;
7247;SDS011;3665;51.034;13.642;2023-07-31T22:59:29;4.33;;;2.50;;
7247;SDS011;3665;51.034;13.642;2023-07-31T23:04:22;5.00;;;2.70;;
7247;SDS011;3665;51.034;13.642;2023-07-31T23:09:06;3.80;;;2.30;;
7247;SDS011;3665;51.034;13.642;2023-07-31T23:13:54;4.40;;;2.80;;
7247;SDS011;3665;51.034;13.642;2023-07-31T23:18:41;4.53;;;3.00;;
7247;SDS011;3665;51.034;13.642;2023-07-31T23:23:29;6.97;;;2.90;;
7247;SDS011;3665;51.034;13.642;2023-07-31T23:28:19;2.80;;;2.57;;
7247;SDS011;3665;51.034;13.642;2023-07-31T23:54:18;6.03;;;3.03;;
7247;SDS011;3665;51.034;13.642;2023-07-31T23:59:08;4.10;;;3.17;;
